Time;durP1;ratioP1;P1;durP2;ratioP2;P2;SDS_P1;SDS_P2;PMS_P1;PMS_P2;Temp;Humidity;BMP_temperature;BMP_pressure;BME280_temperature;BME280_humidity;BME280_pressure;Samples;Min_cycle;Max_cycle;Signal;HPM_P1;HPM_P2
2022/10/08 00:00:55;;;;;;;6.43;4.43;;;;;;;14.47;nan;100751.19;5040716;28;20533;-68
2022/10/08 00:03:22;;;;;;;5.68;4.47;;;;;;;14.48;nan;100746.72;5040581;28;20406;-68
2022/10/08 00:05:56;;;;;;;8.35;4.70;;;;;;;14.48;nan;100744.88;5033868;28;20064;-68
2022/10/08 00:08:22;;;;;;;6.05;4.55;;;;;;;14.49;nan;100741.22;5027708;28;20033;-68
2022/10/08 00:10:55;;;;;;;8.75;5.40;;;;;;;14.52;nan;100738.22;5040553;28;20029;-68
2022/10/08 00:13:22;;;;;;;7.72;4.82;;;;;;;14.55;nan;100739.72;5042783;28;20044;-68
2022/10/08 00:15:47;;;;;;;6.63;4.22;;;;;;;14.58;nan;100739.38;5040753;28;20318;-68
2022/10/08 00:18:12;;;;;;;6.18;4.50;;;;;;;14.61;nan;100739.88;5038282;28;20119;-68
2022/10/08 00:20:38;;;;;;;4.93;3.58;;;;;;;14.65;nan;100741.16;5043297;28;20029;-68
2022/10/08 00:23:03;;;;;;;4.60;3.53;;;;;;;14.69;nan;100746.16;5041624;28;20083;-68
2022/10/08 00:25:28;;;;;;;5.97;4.18;;;;;;;14.70;nan;100745.16;5031999;28;20045;-68
2022/10/08 00:27:53;;;;;;;5.72;3.88;;;;;;;14.72;nan;100733.31;5034031;28;20030;-69
2022/10/08 00:30:19;;;;;;;6.00;3.63;;;;;;;14.75;nan;100742.78;5033532;28;20047;-69
2022/10/08 00:32:44;;;;;;;6.15;4.50;;;;;;;14.74;nan;100741.13;5030482;28;20032;-69
2022/10/08 00:35:09;;;;;;;5.20;3.78;;;;;;;14.74;nan;100741.13;5030374;28;20482;-69
2022/10/08 00:37:35;;;;;;;6.05;3.67;;;;;;;14.72;nan;100737.81;5044109;28;20044;-69
2022/10/08 00:40:00;;;;;;;7.13;4.63;;;;;;;14.71;nan;100742.31;5037554;28;20033;-69
2022/10/08 00:42:26;;;;;;;7.28;4.40;;;;;;;14.69;nan;100746.16;5037883;28;20056;-69
2022/10/08 00:44:53;;;;;;;5.07;4.10;;;;;;;14.71;nan;100744.16;5035921;28;20037;-69
2022/10/08 00:47:24;;;;;;;6.75;4.35;;;;;;;14.70;nan;100740.63;5036221;28;20137;-69
2022/10/08 00:49:54;;;;;;;4.60;3.43;;;;;;;14.71;nan;100739.66;5041031;28;20418;-68
2022/10/08 00:52:21;;;;;;;5.15;3.22;;;;;;;14.70;nan;100735.31;5031414;28;20406;-68
2022/10/08 00:54:50;;;;;;;4.35;3.35;;;;;;;14.72;nan;100733.31;5037877;28;20108;-68
2022/10/08 00:57:16;;;;;;;4.07;3.35;;;;;;;14.74;nan;100733.97;5035123;28;20052;-69
2022/10/08 00:59:41;;;;;;;5.65;3.78;;;;;;;14.75;nan;100740.13;5032230;28;20052;-68
2022/10/08 01:02:07;;;;;;;5.70;3.85;;;;;;;14.73;nan;100736.81;5032993;28;20069;-68
2022/10/08 01:04:34;;;;;;;5.68;3.50;;;;;;;14.74;nan;100736.63;5018989;28;20503;-69
2022/10/08 01:07:09;;;;;;;5.68;4.07;;;;;;;14.73;nan;100736.81;5035819;28;20040;-68
2022/10/08 01:09:44;;;;;;;5.82;4.18;;;;;;;14.72;nan;100735.16;5036312;28;20413;-68
2022/10/08 01:12:14;;;;;;;6.25;4.50;;;;;;;14.72;nan;100735.16;5038079;28;20128;-69
2022/10/08 01:14:55;;;;;;;6.43;4.10;;;;;;;14.71;nan;100739.66;5040438;28;20102;-68
2022/10/08 01:17:32;;;;;;;5.30;3.50;;;;;;;14.72;nan;100729.84;5039559;28;20034;-69
2022/10/08 01:20:34;;;;;;;6.10;3.70;;;;;;;14.75;nan;100742.78;5037681;28;20089;-68
2022/10/08 01:23:17;;;;;;;3.80;3.25;;;;;;;14.75;nan;100740.13;5042903;28;20490;-69
2022/10/08 01:25:58;;;;;;;5.15;3.58;;;;;;;14.75;nan;100740.13;5031264;28;20056;-68
2022/10/08 01:28:41;;;;;;;5.72;3.58;;;;;;;14.73;nan;100742.13;5036670;28;20120;-69
2022/10/08 01:31:21;;;;;;;6.35;3.10;;;;;;;14.72;nan;100746.63;5041797;28;20121;-69
2022/10/08 01:33:54;;;;;;;6.13;3.65;;;;;;;14.70;nan;100743.31;5034945;28;20033;-68
2022/10/08 01:36:22;;;;;;;5.95;3.85;;;;;;;14.69;nan;100740.84;5028687;28;20038;-69
2022/10/08 01:38:53;;;;;;;4.85;3.30;;;;;;;14.70;nan;100751.28;5034210;28;20108;-69
2022/10/08 01:41:20;;;;;;;7.93;5.28;;;;;;;14.64;nan;100747.50;5036722;28;20045;-68
2022/10/08 01:43:53;;;;;;;7.18;4.90;;;;;;;14.64;nan;100750.16;5043751;28;20462;-69
2022/10/08 01:46:25;;;;;;;5.63;4.43;;;;;;;14.64;nan;100744.00;5038282;28;21121;-69
2022/10/08 01:48:55;;;;;;;6.18;4.00;;;;;;;14.63;nan;100756.50;5045136;28;20129;-68
2022/10/08 01:51:25;;;;;;;6.32;4.13;;;;;;;14.61;nan;100750.50;5044089;28;20029;-69
2022/10/08 01:53:51;;;;;;;5.73;4.00;;;;;;;14.60;nan;100751.50;5044879;28;20495;-69
2022/10/08 01:56:22;;;;;;;4.53;3.40;;;;;;;14.60;nan;100753.34;5042998;28;20044;-69
2022/10/08 01:59:02;;;;;;;4.70;3.60;;;;;;;14.57;nan;100748.38;5037161;28;20033;-69
2022/10/08 02:01:58;;;;;;;6.80;3.75;;;;;;;14.56;nan;100757.34;5049527;28;20036;-68
2022/10/08 02:04:32;;;;;;;4.85;3.30;;;;;;;14.55;nan;100751.19;5045726;28;20041;-68
2022/10/08 02:07:00;;;;;;;4.82;3.40;;;;;;;14.55;nan;100753.84;5034742;28;20040;-68
2022/10/08 02:09:27;;;;;;;5.65;3.70;;;;;;;14.53;nan;100745.19;5044477;28;20401;-69
2022/10/08 02:11:53;;;;;;;6.88;3.80;;;;;;;14.52;nan;100745.38;5049324;28;20033;-69
2022/10/08 02:14:24;;;;;;;5.45;3.78;;;;;;;14.52;nan;100745.38;5033517;28;20091;-69
2022/10/08 02:17:30;;;;;;;6.55;4.50;;;;;;;14.48;nan;100742.22;5028561;28;20033;-68
2022/10/08 02:20:21;;;;;;;5.00;3.80;;;;;;;14.44;nan;100739.06;5039971;28;20056;-68
2022/10/08 02:22:57;;;;;;;4.90;3.65;;;;;;;14.45;nan;100742.56;5033254;28;20037;-69
2022/10/08 02:25:32;;;;;;;6.00;3.97;;;;;;;14.46;nan;100744.22;5037596;28;20033;-68
2022/10/08 02:28:16;;;;;;;5.30;3.60;;;;;;;14.41;nan;100747.38;5037534;28;20436;-68
2022/10/08 02:30:52;;;;;;;5.82;3.45;;;;;;;14.37;nan;100753.22;5028481;28;20036;-69
2022/10/08 02:33:29;;;;;;;5.55;3.70;;;;;;;14.31;nan;100753.91;5033742;28;20044;-69
2022/10/08 02:35:59;;;;;;;5.00;3.47;;;;;;;14.29;nan;100755.91;5039863;28;20041;-68
2022/10/08 02:38:38;;;;;;;6.13;3.65;;;;;;;14.26;nan;100745.63;5048089;28;20398;-68
2022/10/08 02:41:06;;;;;;;4.72;3.33;;;;;;;14.20;nan;100745.28;5031547;28;20117;-69
2022/10/08 02:43:36;;;;;;;4.40;3.50;;;;;;;14.13;nan;100746.13;5046642;28;20029;-68
2022/10/08 02:46:17;;;;;;;4.65;3.25;;;;;;;14.09;nan;100756.28;5041267;28;20498;-69
2022/10/08 02:49:00;;;;;;;5.20;3.28;;;;;;;14.11;nan;100754.28;5037667;28;20091;-69
2022/10/08 02:51:28;;;;;;;3.70;2.60;;;;;;;14.13;nan;100760.25;5045013;28;20041;-69
2022/10/08 02:53:53;;;;;;;6.53;4.53;;;;;;;14.11;nan;100764.06;5039658;28;20116;-68
2022/10/08 02:56:51;;;;;;;4.80;3.70;;;;;;;14.07;nan;100752.97;5035940;28;20044;-69
2022/10/08 02:59:19;;;;;;;4.80;3.65;;;;;;;14.08;nan;100761.75;5030727;28;20037;-68
2022/10/08 03:01:54;;;;;;;6.32;3.40;;;;;;;14.08;nan;100762.59;5041950;28;20030;-68
2022/10/08 03:04:37;;;;;;;4.50;3.58;;;;;;;14.06;nan;100761.91;5033889;28;20098;-69
2022/10/08 03:07:04;;;;;;;5.55;3.55;;;;;;;14.08;nan;100772.41;5031548;28;20060;-69
2022/10/08 03:09:36;;;;;;;5.82;3.42;;;;;;;14.09;nan;100772.25;5026675;28;20048;-68
2022/10/08 03:12:02;;;;;;;6.10;3.72;;;;;;;14.12;nan;100777.22;5036717;28;20029;-70
2022/10/08 03:14:31;;;;;;;5.30;3.90;;;;;;;14.10;nan;100767.75;5040478;28;20041;-69
2022/10/08 03:16:57;;;;;;;4.47;3.58;;;;;;;14.12;nan;100763.09;5041024;28;20040;-68
2022/10/08 03:19:22;;;;;;;4.30;3.20;;;;;;;14.14;nan;100769.91;5037805;28;20029;-68
2022/10/08 03:21:52;;;;;;;5.70;3.78;;;;;;;14.13;nan;100768.22;5032064;28;20319;-69
2022/10/08 03:24:17;;;;;;;6.50;3.90;;;;;;;14.14;nan;100777.88;5042706;28;20506;-69
2022/10/08 03:26:43;;;;;;;5.65;3.55;;;;;;;14.15;nan;100781.38;5036252;28;20072;-69
2022/10/08 03:29:08;;;;;;;6.88;4.28;;;;;;;14.14;nan;100783.19;5036373;28;20498;-68
2022/10/08 03:31:34;;;;;;;7.53;5.68;;;;;;;14.11;nan;100793.31;5037639;28;20040;-68
2022/10/08 03:34:00;;;;;;;8.15;5.07;;;;;;;14.10;nan;100795.16;5040573;28;20029;-68
2022/10/08 03:36:25;;;;;;;5.97;4.07;;;;;;;14.11;nan;100799.50;5028418;28;20134;-68
2022/10/08 03:38:51;;;;;;;5.35;4.10;;;;;;;14.06;nan;100796.50;5033280;28;20126;-69
2022/10/08 03:41:17;;;;;;;5.78;3.78;;;;;;;13.98;nan;100786.69;5038252;28;20107;-69
2022/10/08 03:43:43;;;;;;;4.93;3.30;;;;;;;13.92;nan;100787.38;5036031;28;20129;-69
2022/10/08 03:46:10;;;;;;;4.65;3.55;;;;;;;13.88;nan;100795.84;5033759;28;20489;-69
2022/10/08 03:48:35;;;;;;;5.65;3.30;;;;;;;13.78;nan;100786.22;5035570;28;20045;-69
2022/10/08 03:51:13;;;;;;;4.15;3.20;;;;;;;13.65;nan;100788.53;5046162;28;20116;-68
2022/10/08 03:53:40;;;;;;;4.35;3.53;;;;;;;13.49;nan;100793.81;5038190;28;20040;-68
2022/10/08 03:56:15;;;;;;;5.25;3.75;;;;;;;13.37;nan;100799.47;5045904;28;20033;-69
2022/10/08 03:58:41;;;;;;;6.78;4.10;;;;;;;13.26;nan;100796.25;5028152;28;20398;-69
2022/10/08 04:01:10;;;;;;;5.40;4.03;;;;;;;13.13;nan;100796.72;5047144;28;20037;-69
2022/10/08 04:03:36;;;;;;;7.18;4.38;;;;;;;13.01;nan;100804.13;5023950;28;20040;-69
2022/10/08 04:06:01;;;;;;;6.22;4.13;;;;;;;12.90;nan;100807.09;5033548;28;20079;-68
2022/10/08 04:08:27;;;;;;;5.60;4.10;;;;;;;12.77;nan;100807.53;5032518;28;20129;-68
2022/10/08 04:10:52;;;;;;;6.72;4.05;;;;;;;12.66;nan;100807.84;5024348;28;20038;-68
2022/10/08 04:13:18;;;;;;;6.77;4.90;;;;;;;12.70;nan;100809.16;5031523;28;20407;-68
2022/10/08 04:15:46;;;;;;;8.57;5.80;;;;;;;12.60;nan;100811.09;5033726;28;20060;-68
2022/10/08 04:18:12;;;;;;;6.50;4.60;;;;;;;12.50;nan;100817.34;5037106;28;20029;-69
2022/10/08 04:20:42;;;;;;;8.18;5.43;;;;;;;12.44;nan;100825.09;5035556;28;20048;-68
2022/10/08 04:23:08;;;;;;;7.10;5.57;;;;;;;12.38;nan;100817.78;5040525;28;20080;-68
2022/10/08 04:25:35;;;;;;;5.65;4.20;;;;;;;12.34;nan;100817.25;5027422;28;20464;-68
2022/10/08 04:28:01;;;;;;;5.03;3.83;;;;;;;12.28;nan;100816.06;5041402;28;20042;-68
2022/10/08 04:30:26;;;;;;;6.55;4.70;;;;;;;12.19;nan;100813.53;5032323;28;20043;-69
2022/10/08 04:33:00;;;;;;;7.05;5.15;;;;;;;12.10;nan;100824.03;5033434;28;20105;-68
2022/10/08 04:35:25;;;;;;;;;;;;;;;12.04;nan;100821.19;5032094;28;20068;-68
2022/10/08 04:37:50;;;;;;;7.73;4.87;;;;;;;11.98;nan;100821.81;5032177;28;19920;-69
2022/10/08 04:40:15;;;;;;;6.15;4.30;;;;;;;11.93;nan;100819.63;5035868;28;20295;-68
2022/10/08 04:42:41;;;;;;;6.40;4.20;;;;;;;11.86;nan;100813.22;5030836;28;20363;-69
2022/10/08 04:45:06;;;;;;;7.00;5.70;;;;;;;11.97;nan;100818.31;5046074;28;20398;-69
2022/10/08 04:47:32;;;;;;;5.38;4.53;;;;;;;11.92;nan;100814.47;5041059;28;20056;-68
2022/10/08 04:49:57;;;;;;;6.43;4.32;;;;;;;11.86;nan;100818.53;5056044;28;20513;-69
2022/10/08 04:52:22;;;;;;;4.90;3.80;;;;;;;11.82;nan;100822.47;5046099;28;20041;-68
2022/10/08 04:54:48;;;;;;;4.78;3.42;;;;;;;11.78;nan;100821.13;5038157;28;20045;-68
2022/10/08 04:57:13;;;;;;;5.55;4.13;;;;;;;11.73;nan;100823.38;5037720;28;20148;-69
2022/10/08 04:59:38;;;;;;;5.38;3.80;;;;;;;11.69;nan;100828.97;5031146;28;20128;-69
2022/10/08 05:02:03;;;;;;;5.10;3.55;;;;;;;11.65;nan;100832.91;5037287;28;20033;-68
2022/10/08 05:04:29;;;;;;;4.70;3.63;;;;;;;11.61;nan;100836.03;5039285;28;20641;-68
2022/10/08 05:06:54;;;;;;;6.00;3.53;;;;;;;11.59;nan;100832.72;5028285;28;20124;-68
2022/10/08 05:09:19;;;;;;;5.35;3.78;;;;;;;11.55;nan;100836.63;5037109;28;20120;-69
2022/10/08 05:11:45;;;;;;;4.50;3.50;;;;;;;11.48;nan;100833.75;5034350;28;20034;-69
2022/10/08 05:14:10;;;;;;;4.38;3.20;;;;;;;11.41;nan;100838.78;5038789;28;20037;-69
2022/10/08 05:16:35;;;;;;;5.35;3.75;;;;;;;11.36;nan;100835.78;5040084;28;20417;-68
2022/10/08 05:19:02;;;;;;;5.28;3.58;;;;;;;11.30;nan;100843.47;5041869;28;20029;-68
2022/10/08 05:21:30;;;;;;;4.65;3.28;;;;;;;11.24;nan;100844.91;5043319;28;20029;-68
2022/10/08 05:23:58;;;;;;;4.88;3.00;;;;;;;11.17;nan;100844.66;5037433;28;20033;-68
2022/10/08 05:26:26;;;;;;;4.88;3.60;;;;;;;11.13;nan;100848.59;5036729;28;20449;-69
2022/10/08 05:28:56;;;;;;;5.30;4.20;;;;;;;11.11;nan;100847.91;5045419;28;20158;-69
2022/10/08 05:31:22;;;;;;;7.25;4.55;;;;;;;11.09;nan;100855.16;5044150;28;20060;-69
2022/10/08 05:33:51;;;;;;;7.50;4.78;;;;;;;11.05;nan;100848.50;5042218;28;20036;-68
2022/10/08 05:36:22;;;;;;;6.18;4.78;;;;;;;11.02;nan;100856.72;5029326;28;20041;-68
2022/10/08 05:38:48;;;;;;;7.60;5.07;;;;;;;10.98;nan;100855.34;5029542;28;20029;-69
2022/10/08 05:41:22;;;;;;;6.47;4.22;;;;;;;10.95;nan;100855.66;5035703;28;20044;-68
2022/10/08 05:43:48;;;;;;;4.93;3.85;;;;;;;10.91;nan;100864.84;5039888;28;20413;-68
2022/10/08 05:46:14;;;;;;;5.43;4.05;;;;;;;10.86;nan;100872.38;5050491;28;20120;-69
2022/10/08 05:48:40;;;;;;;5.93;4.13;;;;;;;10.82;nan;100877.13;5032651;28;20033;-68
2022/10/08 05:51:11;;;;;;;;;;;;;;;10.77;nan;100879.38;5041691;28;20060;-68
2022/10/08 05:53:38;;;;;;;7.57;4.60;;;;;;;10.74;nan;100887.59;5041292;28;19990;-68
2022/10/08 05:56:06;;;;;;;5.47;4.00;;;;;;;10.71;nan;100888.72;5042670;28;20040;-69
2022/10/08 05:58:33;;;;;;;7.78;3.92;;;;;;;10.70;nan;100886.22;5028465;28;20037;-69
2022/10/08 06:01:00;;;;;;;7.00;5.30;;;;;;;10.81;nan;100886.88;5041042;28;20418;-68
2022/10/08 06:03:27;;;;;;;5.50;4.30;;;;;;;10.76;nan;100883.00;5043684;28;20077;-68
2022/10/08 06:05:53;;;;;;;5.72;4.18;;;;;;;10.75;nan;100892.75;5030998;28;20037;-68
2022/10/08 06:08:19;;;;;;;6.05;4.10;;;;;;;10.75;nan;100898.06;5034213;28;20037;-68
2022/10/08 06:10:51;;;;;;;5.72;4.40;;;;;;;10.77;nan;100896.09;5035904;28;20045;-68
2022/10/08 06:13:20;;;;;;;5.95;4.28;;;;;;;10.79;nan;100898.59;5036161;28;20065;-68
2022/10/08 06:15:56;;;;;;;5.68;3.97;;;;;;;10.82;nan;100901.78;5037885;28;20036;-68
2022/10/08 06:18:23;;;;;;;5.50;3.85;;;;;;;10.87;nan;100914.59;5041091;28;20417;-69
2022/10/08 06:20:48;;;;;;;4.22;3.33;;;;;;;10.93;nan;100908.69;5043301;28;20612;-68
2022/10/08 06:23:14;;;;;;;4.95;3.47;;;;;;;10.96;nan;100908.41;5033259;28;20033;-68
2022/10/08 06:25:39;;;;;;;5.55;3.78;;;;;;;11.02;nan;100914.94;5038355;28;20388;-68
2022/10/08 06:28:04;;;;;;;6.70;4.53;;;;;;;11.05;nan;100912.00;5031432;28;20041;-68
2022/10/08 06:30:29;;;;;;;4.63;3.60;;;;;;;11.06;nan;100913.69;5043933;28;20095;-68
2022/10/08 06:32:55;;;;;;;6.97;3.88;;;;;;;11.07;nan;100912.69;5037657;28;20055;-68
2022/10/08 06:35:20;;;;;;;5.40;3.97;;;;;;;11.07;nan;100919.81;5032489;28;20034;-68
2022/10/08 06:37:48;;;;;;;4.80;3.58;;;;;;;11.07;nan;100920.63;5033095;28;20045;-69
2022/10/08 06:40:14;;;;;;;4.32;3.55;;;;;;;11.09;nan;100931.09;5039433;28;20124;-69
2022/10/08 06:42:39;;;;;;;6.22;4.47;;;;;;;11.12;nan;100925.50;5032210;28;20120;-69
2022/10/08 06:45:05;;;;;;;7.03;4.30;;;;;;;11.19;nan;100916.00;5034177;28;20041;-68
2022/10/08 06:47:30;;;;;;;5.07;3.40;;;;;;;11.34;nan;100925.09;5045582;28;20037;-68
2022/10/08 06:49:56;;;;;;;5.70;3.45;;;;;;;11.47;nan;100930.06;5035418;28;20040;-68
2022/10/08 06:52:21;;;;;;;6.22;3.30;;;;;;;11.59;nan;100923.59;5040949;28;20053;-69
2022/10/08 06:54:46;;;;;;;4.47;2.83;;;;;;;11.75;nan;100930.03;5038936;28;20033;-69
2022/10/08 06:57:11;;;;;;;5.00;3.03;;;;;;;11.88;nan;100927.88;5039155;28;20068;-69
2022/10/08 06:59:36;;;;;;;4.25;2.72;;;;;;;11.97;nan;100937.59;5053694;28;20062;-68
2022/10/08 07:02:02;;;;;;;4.03;2.80;;;;;;;12.03;nan;100939.63;5043710;28;20037;-68
2022/10/08 07:04:27;;;;;;;4.13;2.88;;;;;;;12.13;nan;100942.19;5041376;28;20305;-68
2022/10/08 07:06:52;;;;;;;4.55;3.30;;;;;;;12.21;nan;100942.28;5034779;28;20033;-69
2022/10/08 07:09:18;;;;;;;4.57;3.07;;;;;;;12.31;nan;100947.50;5032896;28;20114;-69
2022/10/08 07:11:43;;;;;;;7.90;3.80;;;;;;;12.38;nan;100945.91;5036293;28;20303;-69
2022/10/08 07:14:08;;;;;;;5.40;3.97;;;;;;;12.47;nan;100952.94;5025756;28;20276;-69
2022/10/08 07:16:33;;;;;;;7.32;4.10;;;;;;;12.52;nan;100961.28;5040214;28;20390;-69
2022/10/08 07:18:59;;;;;;;7.68;4.30;;;;;;;12.56;nan;100953.00;5044208;28;20037;-69
2022/10/08 07:21:24;;;;;;;5.75;4.25;;;;;;;12.59;nan;100948.22;5039795;28;20037;-68
2022/10/08 07:23:50;;;;;;;5.82;3.88;;;;;;;12.65;nan;100950.25;5044366;28;20036;-69
2022/10/08 07:26:23;;;;;;;5.30;3.83;;;;;;;12.72;nan;100963.72;5032439;28;20094;-69
2022/10/08 07:28:57;;;;;;;4.95;3.42;;;;;;;12.80;nan;100961.16;5031625;28;20489;-69
2022/10/08 07:31:28;;;;;;;6.07;4.20;;;;;;;12.87;nan;100961.34;5042327;28;20045;-69
2022/10/08 07:33:58;;;;;;;8.75;4.60;;;;;;;12.95;nan;100964.06;5041975;28;20393;-69
2022/10/08 07:36:25;;;;;;;8.02;4.90;;;;;;;13.02;nan;100972.25;5037518;28;20056;-69
2022/10/08 07:38:59;;;;;;;8.73;4.35;;;;;;;13.08;nan;100971.59;5029027;28;20394;-69
2022/10/08 07:41:25;;;;;;;7.70;4.07;;;;;;;13.12;nan;100978.28;5038898;28;20037;-69
2022/10/08 07:43:52;;;;;;;6.65;4.45;;;;;;;13.18;nan;100980.31;5036093;28;20030;-69
2022/10/08 07:46:18;;;;;;;8.40;4.32;;;;;;;13.27;nan;100990.00;5042137;28;20422;-69
2022/10/08 07:48:45;;;;;;;8.05;4.82;;;;;;;13.41;nan;100982.44;5029872;28;20049;-69
2022/10/08 07:51:14;;;;;;;9.35;4.80;;;;;;;13.59;nan;100985.84;5027436;28;20037;-69
2022/10/08 07:53:40;;;;;;;8.57;5.28;;;;;;;13.72;nan;100988.84;5039194;28;20137;-69
2022/10/08 07:56:07;;;;;;;8.57;5.38;;;;;;;13.76;nan;100987.53;5038791;28;20045;-69
2022/10/08 07:58:32;;;;;;;;;;;;;;;13.83;nan;100989.56;5033703;28;20460;-69
2022/10/08 08:00:58;;;;;;;;;;;;;;;13.89;nan;100991.56;5038113;28;19955;-69
2022/10/08 08:03:24;;;;;;;9.18;4.80;;;;;;;13.95;nan;100988.28;5020651;28;19917;-69
2022/10/08 08:05:49;;;;;;;7.75;5.07;;;;;;;14.06;nan;100993.25;5030488;28;20033;-69
2022/10/08 08:08:15;;;;;;;5.75;3.97;;;;;;;14.30;nan;100991.63;5025315;28;20037;-69
2022/10/08 08:10:40;;;;;;;7.40;4.57;;;;;;;14.61;nan;101000.69;5029946;28;20033;-69
2022/10/08 08:13:06;;;;;;;7.72;5.05;;;;;;;14.86;nan;100998.81;5029289;28;20037;-69
2022/10/08 08:15:31;;;;;;;6.65;4.75;;;;;;;15.16;nan;100998.28;5031167;28;20067;-69
2022/10/08 08:17:57;;;;;;;7.75;4.60;;;;;;;15.51;nan;101003.16;5035518;28;20476;-69
2022/10/08 08:20:22;;;;;;;8.45;4.88;;;;;;;15.80;nan;101007.09;5038010;28;20227;-69
2022/10/08 08:22:47;;;;;;;8.77;4.37;;;;;;;15.99;nan;101011.13;5034837;28;20457;-69
2022/10/08 08:25:13;;;;;;;6.75;3.90;;;;;;;16.15;nan;101012.88;5032195;28;20316;-69
2022/10/08 08:27:38;;;;;;;7.85;4.00;;;;;;;16.30;nan;101013.81;5039006;28;20041;-69
2022/10/08 08:30:04;;;;;;;8.98;4.68;;;;;;;16.35;nan;101016.75;5028904;28;20405;-69
2022/10/08 08:32:29;;;;;;;8.45;4.45;;;;;;;16.36;nan;101017.59;5034980;28;20052;-69
2022/10/08 08:34:54;;;;;;;7.30;4.18;;;;;;;16.56;nan;101012.59;5033568;28;20732;-69
2022/10/08 08:37:19;;;;;;;9.35;4.53;;;;;;;16.98;nan;101017.44;5033133;28;20128;-69
2022/10/08 08:39:45;;;;;;;7.50;4.20;;;;;;;17.08;nan;101017.16;5040387;28;20095;-69
2022/10/08 08:42:52;;;;;;;8.75;3.88;;;;;;;17.19;nan;101019.41;5034068;28;20647;-69
2022/10/08 08:45:24;;;;;;;5.60;2.88;;;;;;;17.94;nan;101024.72;5032643;28;20107;-69
2022/10/08 08:48:06;;;;;;;6.38;2.92;;;;;;;18.68;nan;101013.72;5033024;28;20029;-69
2022/10/08 08:50:41;;;;;;;8.15;3.05;;;;;;;19.84;nan;101030.19;5042218;28;20614;-70
2022/10/08 08:53:09;;;;;;;8.40;3.05;;;;;;;20.83;nan;101034.09;5031062;28;20049;-69
2022/10/08 08:55:37;;;;;;;7.15;3.20;;;;;;;21.59;nan;101032.78;5036518;28;20037;-69
2022/10/08 08:58:14;;;;;;;8.05;2.88;;;;;;;22.24;nan;101036.25;5035881;28;20128;-69
2022/10/08 09:00:44;;;;;;;7.05;2.33;;;;;;;22.84;nan;101033.09;5035324;28;20287;-69
2022/10/08 09:03:28;;;;;;;6.03;2.03;;;;;;;23.63;nan;101033.38;5034585;28;20038;-70
2022/10/08 09:05:56;;;;;;;6.50;2.17;;;;;;;24.24;nan;101036.97;5032387;28;20045;-69
2022/10/08 09:08:42;;;;;;;5.00;1.70;;;;;;;24.97;nan;101035.00;5026707;28;20045;-69
2022/10/08 09:11:12;;;;;;;4.90;1.80;;;;;;;25.18;nan;101039.84;5032438;28;20064;-69
2022/10/08 09:13:54;;;;;;;5.22;1.67;;;;;;;25.25;nan;101037.03;5032454;28;20037;-69
2022/10/08 09:16:20;;;;;;;4.90;2.00;;;;;;;25.52;nan;101034.63;5025398;28;20038;-69
2022/10/08 09:18:49;;;;;;;4.15;1.60;;;;;;;25.92;nan;101033.84;5040182;28;20037;-69
2022/10/08 09:21:15;;;;;;;4.70;1.50;;;;;;;26.85;nan;101037.09;5040669;28;20041;-69
2022/10/08 09:23:40;;;;;;;4.22;1.40;;;;;;;27.71;nan;101047.53;5047467;28;20033;-67
2022/10/08 09:26:18;;;;;;;4.43;1.67;;;;;;;27.60;nan;101037.66;5032593;28;20033;-67
2022/10/08 09:28:49;;;;;;;5.13;1.77;;;;;;;26.40;nan;101043.38;5033171;28;20075;-67
2022/10/08 09:31:25;;;;;;;8.35;2.65;;;;;;;26.42;nan;101046.69;5041527;28;20045;-67
2022/10/08 09:34:09;;;;;;;4.35;1.80;;;;;;;27.20;nan;101043.34;5051497;28;20021;-67
2022/10/08 09:36:42;;;;;;;4.07;1.70;;;;;;;28.71;nan;101047.22;5044361;28;20036;-67
2022/10/08 09:39:20;;;;;;;6.88;3.33;;;;;;;28.85;nan;101046.81;5051117;28;20421;-68
2022/10/08 09:42:02;;;;;;;8.60;4.20;;;;;;;28.08;nan;101041.47;5046558;28;20025;-68
2022/10/08 09:44:38;;;;;;;5.60;2.53;;;;;;;27.04;nan;101043.09;5050134;28;20120;-67
2022/10/08 09:47:05;;;;;;;4.90;2.30;;;;;;;26.08;nan;101044.97;5048230;28;20044;-67
2022/10/08 09:49:37;;;;;;;4.85;1.88;;;;;;;25.23;nan;101041.03;5049395;28;20056;-67
2022/10/08 09:52:22;;;;;;;4.75;1.58;;;;;;;24.24;nan;101041.53;5040456;28;20025;-69
2022/10/08 09:54:51;;;;;;;4.13;1.48;;;;;;;23.40;nan;101049.41;5039261;28;20030;-67
2022/10/08 09:57:19;;;;;;;2.67;1.17;;;;;;;22.93;nan;101047.16;5044366;28;20044;-67
2022/10/08 09:59:57;;;;;;;8.50;2.50;;;;;;;22.20;nan;101045.78;5051590;28;20028;-67
2022/10/08 10:02:30;;;;;;;5.25;2.30;;;;;;;22.01;nan;101046.69;5046365;28;20130;-67
2022/10/08 10:04:56;;;;;;;8.80;5.13;;;;;;;21.69;nan;101046.63;5037804;28;20152;-67
2022/10/08 10:07:23;;;;;;;11.38;5.85;;;;;;;21.12;nan;101049.00;5037257;28;20056;-67
2022/10/08 10:09:53;;;;;;;9.85;5.22;;;;;;;20.89;nan;101053.97;5051283;28;20035;-67
2022/10/08 10:12:35;;;;;;;10.50;7.32;;;;;;;21.00;nan;101058.75;5047136;28;20428;-67
2022/10/08 10:15:37;;;;;;;7.05;4.40;;;;;;;20.91;nan;101054.59;5041165;28;20440;-67
2022/10/08 10:18:10;;;;;;;5.82;2.30;;;;;;;20.68;nan;101061.19;5036976;28;20057;-67
2022/10/08 10:20:49;;;;;;;3.40;1.27;;;;;;;20.41;nan;101060.31;5042855;28;20029;-67
2022/10/08 10:23:25;;;;;;;4.18;1.52;;;;;;;20.34;nan;101060.28;5045049;28;20040;-67
2022/10/08 10:26:06;;;;;;;3.50;1.42;;;;;;;20.22;nan;101061.91;5051211;28;20397;-67
2022/10/08 10:28:46;;;;;;;3.65;1.42;;;;;;;20.21;nan;101062.94;5036368;28;20025;-67
2022/10/08 10:31:30;;;;;;;3.30;1.45;;;;;;;20.21;nan;101057.56;5050123;28;20033;-67
2022/10/08 10:34:06;;;;;;;3.08;0.95;;;;;;;20.25;nan;101056.13;5044717;28;20041;-67
2022/10/08 10:36:35;;;;;;;3.55;1.00;;;;;;;20.10;nan;101058.97;5048534;28;20482;-67
2022/10/08 10:39:31;;;;;;;2.70;0.90;;;;;;;19.67;nan;101055.69;5046485;28;20025;-69
2022/10/08 10:42:13;;;;;;;2.15;1.00;;;;;;;19.47;nan;101050.19;5048913;28;20030;-67
2022/10/08 10:44:50;;;;;;;2.17;0.82;;;;;;;19.43;nan;101057.81;5046802;28;20805;-67
2022/10/08 10:47:19;;;;;;;2.72;1.10;;;;;;;19.35;nan;101060.63;5050574;28;20059;-67
2022/10/08 10:49:44;;;;;;;2.55;0.90;;;;;;;19.45;nan;101061.13;5041944;28;20075;-67
2022/10/08 10:52:15;;;;;;;2.33;1.10;;;;;;;19.71;nan;101068.53;5041966;28;20411;-67
2022/10/08 10:54:55;;;;;;;;;;;;;;;19.65;nan;101063.91;5044507;28;20297;-67
2022/10/08 10:57:23;;;;;;;;;;;;;;;19.39;nan;101069.13;5036921;28;19913;-67
2022/10/08 11:00:13;;;;;;;3.20;1.02;;;;;;;19.21;nan;101067.78;5041033;28;19942;-67
2022/10/08 11:02:43;;;;;;;2.65;0.80;;;;;;;19.36;nan;101070.34;5031116;28;20394;-67
2022/10/08 11:05:21;;;;;;;2.00;0.80;;;;;;;19.47;nan;101069.81;5033647;28;20495;-69
2022/10/08 11:08:18;;;;;;;4.28;0.90;;;;;;;19.17;nan;101063.84;5036013;28;20498;-67
2022/10/08 11:11:02;;;;;;;2.30;0.98;;;;;;;18.87;nan;101068.53;5038544;28;20127;-67
2022/10/08 11:13:55;;;;;;;5.35;1.25;;;;;;;18.43;nan;101069.53;5040766;28;20038;-67
2022/10/08 11:16:49;;;;;;;3.47;1.25;;;;;;;18.28;nan;101061.53;5034842;28;20068;-67
2022/10/08 11:19:31;;;;;;;3.15;1.10;;;;;;;18.17;nan;101070.91;5034182;28;20564;-67
2022/10/08 11:22:19;;;;;;;3.50;1.10;;;;;;;18.04;nan;101079.63;5041331;28;20029;-67
2022/10/08 11:25:09;;;;;;;2.50;1.00;;;;;;;17.89;nan;101080.66;5032328;28;20059;-67
2022/10/08 11:28:06;;;;;;;3.10;1.30;;;;;;;17.83;nan;101074.19;5044597;28;20029;-67
2022/10/08 11:30:54;;;;;;;4.50;1.30;;;;;;;17.80;nan;101067.38;5041736;28;20093;-67
2022/10/08 11:33:20;;;;;;;3.60;1.27;;;;;;;17.79;nan;101072.88;5047195;28;20033;-67
2022/10/08 11:36:23;;;;;;;2.92;1.10;;;;;;;17.79;nan;101070.19;5046663;28;20448;-67
2022/10/08 11:38:54;;;;;;;3.30;1.05;;;;;;;17.73;nan;101078.94;5050492;28;20033;-67
2022/10/08 11:41:34;;;;;;;3.63;1.30;;;;;;;17.65;nan;101076.38;5031700;28;20045;-67
2022/10/08 11:44:01;;;;;;;3.07;1.20;;;;;;;17.65;nan;101079.06;5046146;28;20082;-69
2022/10/08 11:46:32;;;;;;;3.15;1.33;;;;;;;17.70;nan;101082.00;5021584;28;20029;-67
2022/10/08 11:48:59;;;;;;;2.85;1.10;;;;;;;17.81;nan;101076.22;5047865;28;20110;-67
2022/10/08 11:51:24;;;;;;;2.38;1.10;;;;;;;17.88;nan;101084.34;5038940;28;20119;-67
2022/10/08 11:54:05;;;;;;;2.93;1.40;;;;;;;17.80;nan;101082.53;5047559;28;20120;-67
2022/10/08 11:56:34;;;;;;;2.30;1.30;;;;;;;17.65;nan;101082.56;5039436;28;20271;-67
2022/10/08 11:59:26;;;;;;;3.90;1.40;;;;;;;17.59;nan;101077.94;5041268;28;20033;-67
2022/10/08 12:02:05;;;;;;;3.95;1.33;;;;;;;17.60;nan;101085.78;5043937;28;20028;-67